Terminal Aerodrome Forecast
Issued by NWS

Home | Current Version | Previous Version | Text Only | Print | Product List | Glossary On
Versions: 1 2 3 4 5 6 7 8 9 10 11 12 13 14 15 16 17 18 19 20 21 22 23 24 25 26
524
FTUS43 KLOT 271122
TAFDPA
TAF
KDPA 271122Z 2712/2812 01006KT 6SM BR SCT010 BKN030
      TEMPO 2712/2713 OVC010
     FM271500 03008KT P6SM SCT020 BKN035
     FM272000 03011G17KT P6SM SCT025 BKN040
     FM280200 02008KT P6SM FEW040 BKN250=

USA.gov is the U.S. government's official web portal to all federal, state and local government web resources and services.